Terminal Aerodrome Forecast
Issued by NWS

Home | Current Version | Previous Version | Text Only | Print | Product List | Glossary On
Versions: 1 2 3 4 5 6 7 8 9 10 11 12 13 14
777
FTUS46 KHNX 201720
TAFBFL
TAF
KBFL 201720Z 2018/2118 VRB06KT P6SM SKC
     FM202100 31010G17KT P6SM SKC
     FM210400 VRB06KT P6SM SKC=

USA.gov is the U.S. government's official web portal to all federal, state and local government web resources and services.